createdAt,value
2022-12-08T00:00:11.706Z,425.00
2022-12-08T00:01:11.656Z,418.00
2022-12-08T00:02:11.792Z,406.00
2022-12-08T00:03:11.734Z,397.00
2022-12-08T00:04:11.626Z,389.00
2022-12-08T00:05:11.599Z,386.00
2022-12-08T00:06:11.584Z,380.00
2022-12-08T00:07:11.566Z,377.00
2022-12-08T00:08:11.622Z,379.00
2022-12-08T00:09:11.538Z,373.00
2022-12-08T00:10:46.435Z,365.00
2022-12-08T00:11:11.547Z,359.00
2022-12-08T00:12:11.520Z,364.00
2022-12-08T00:13:11.517Z,384.00
2022-12-08T00:14:11.498Z,382.00
2022-12-08T00:15:11.514Z,371.00
2022-12-08T00:16:11.564Z,382.00
2022-12-08T00:17:11.485Z,371.00
2022-12-08T00:18:11.462Z,372.00
2022-12-08T00:19:11.478Z,378.00
2022-12-08T00:20:11.479Z,400.00
2022-12-08T00:21:11.427Z,392.00
2022-12-08T00:22:11.425Z,399.00
2022-12-08T00:23:11.434Z,418.00
2022-12-08T00:24:11.392Z,434.00
2022-12-08T00:25:11.374Z,441.00
2022-12-08T00:26:11.442Z,430.00
2022-12-08T00:27:11.327Z,381.00
2022-12-08T00:28:11.356Z,347.00
2022-12-08T00:29:17.002Z,322.00
2022-12-08T00:30:11.344Z,313.00
2022-12-08T00:31:11.347Z,323.00
2022-12-08T00:32:11.380Z,326.00
2022-12-08T00:33:11.230Z,327.00
2022-12-08T00:34:11.342Z,332.00
2022-12-08T00:35:11.245Z,331.00
2022-12-08T00:36:11.239Z,330.00
2022-12-08T00:37:11.225Z,333.00
2022-12-08T00:38:11.187Z,331.00
2022-12-08T00:39:11.219Z,332.00
2022-12-08T00:40:11.192Z,327.00
2022-12-08T00:41:11.152Z,322.00
2022-12-08T00:42:11.163Z,351.00
2022-12-08T00:43:11.096Z,365.00
2022-12-08T00:44:11.108Z,395.00
2022-12-08T00:45:11.112Z,400.00
2022-12-08T00:46:11.180Z,411.00
2022-12-08T00:47:11.051Z,416.00
2022-12-08T00:48:11.064Z,422.00
2022-12-08T00:49:11.036Z,426.00
2022-12-08T00:50:11.044Z,438.00
2022-12-08T00:51:11.003Z,455.00
2022-12-08T00:52:11.019Z,441.00
2022-12-08T00:53:10.967Z,439.00
2022-12-08T00:54:11.000Z,432.00
2022-12-08T00:55:11.004Z,432.00
2022-12-08T00:56:10.950Z,443.00
2022-12-08T00:57:10.946Z,430.00
2022-12-08T00:58:10.923Z,441.00
2022-12-08T00:59:10.943Z,439.00
2022-12-08T01:00:10.918Z,430.00
2022-12-08T01:01:10.945Z,431.00
2022-12-08T01:02:10.884Z,423.00
2022-12-08T01:03:10.940Z,436.00
2022-12-08T01:04:10.852Z,422.00
2022-12-08T01:05:10.833Z,431.00
2022-12-08T01:06:10.810Z,397.00
2022-12-08T01:07:10.778Z,413.00
2022-12-08T01:08:10.882Z,429.00
2022-12-08T01:09:10.798Z,425.00
2022-12-08T01:10:10.817Z,433.00
2022-12-08T01:11:10.743Z,401.00
2022-12-08T01:12:10.750Z,432.00
2022-12-08T01:13:10.724Z,428.00
2022-12-08T01:14:10.724Z,423.00
2022-12-08T01:15:10.702Z,423.00
2022-12-08T01:16:10.747Z,417.00
2022-12-08T01:17:10.763Z,419.00
2022-12-08T01:18:10.702Z,412.00
2022-12-08T01:19:10.661Z,409.00
2022-12-08T01:20:10.665Z,414.00
2022-12-08T01:21:10.650Z,390.00
2022-12-08T01:22:10.591Z,404.00
2022-12-08T01:23:10.591Z,401.00
2022-12-08T01:24:10.590Z,405.00
2022-12-08T01:25:10.569Z,422.00
2022-12-08T01:26:10.548Z,419.00
2022-12-08T01:27:10.593Z,417.00
2022-12-08T01:28:10.569Z,415.00
2022-12-08T01:29:10.512Z,410.00
2022-12-08T01:30:10.513Z,407.00
2022-12-08T01:31:10.581Z,409.00
2022-12-08T01:32:10.516Z,432.00
2022-12-08T01:33:10.471Z,423.00
2022-12-08T01:34:10.481Z,438.00
2022-12-08T01:35:10.447Z,436.00
2022-12-08T01:36:10.411Z,441.00
2022-12-08T01:37:10.454Z,434.00
2022-12-08T01:38:10.419Z,426.00
2022-12-08T01:39:10.415Z,406.00
2022-12-08T01:40:10.364Z,403.00
2022-12-08T01:41:10.366Z,413.00
2022-12-08T01:42:10.370Z,434.00
2022-12-08T01:43:10.366Z,420.00
2022-12-08T01:44:10.371Z,426.00
2022-12-08T01:45:10.309Z,438.00
2022-12-08T01:46:10.360Z,443.00
2022-12-08T01:47:10.281Z,448.00
2022-12-08T01:48:10.326Z,436.00
2022-12-08T01:49:10.246Z,433.00
2022-12-08T01:50:10.259Z,425.00
2022-12-08T01:51:10.251Z,418.00
2022-12-08T01:52:10.225Z,437.00
2022-12-08T01:53:10.212Z,443.00
2022-12-08T01:54:10.200Z,427.00
2022-12-08T01:55:10.167Z,428.00
2022-12-08T01:56:10.171Z,424.00
2022-12-08T01:57:10.173Z,420.00
2022-12-08T01:58:10.195Z,422.00
2022-12-08T01:59:10.199Z,431.00
2022-12-08T02:00:10.164Z,432.00
2022-12-08T02:01:10.183Z,419.00
2022-12-08T02:02:10.141Z,425.00
2022-12-08T02:03:10.064Z,432.00
2022-12-08T02:04:10.081Z,422.00
2022-12-08T02:05:10.054Z,423.00
2022-12-08T02:06:10.042Z,424.00
2022-12-08T02:07:10.016Z,432.00
2022-12-08T02:08:10.162Z,440.00
2022-12-08T02:09:10.038Z,431.00
2022-12-08T02:10:10.032Z,430.00
2022-12-08T02:11:10.011Z,439.00
2022-12-08T02:12:09.957Z,438.00
2022-12-08T02:13:09.964Z,428.00
2022-12-08T02:14:09.979Z,427.00
2022-12-08T02:15:09.931Z,437.00
2022-12-08T02:16:10.017Z,433.00
2022-12-08T02:17:09.882Z,435.00
2022-12-08T02:18:09.894Z,437.00
2022-12-08T02:19:30.435Z,457.00
2022-12-08T02:20:09.864Z,440.00
2022-12-08T02:21:09.869Z,430.00
2022-12-08T02:22:09.825Z,434.00
2022-12-08T02:23:09.810Z,448.00
2022-12-08T02:24:09.814Z,428.00
2022-12-08T02:25:09.834Z,432.00
2022-12-08T02:26:09.796Z,425.00
2022-12-08T02:27:09.800Z,430.00
2022-12-08T02:28:09.806Z,428.00
2022-12-08T02:29:09.796Z,428.00
2022-12-08T02:30:09.832Z,426.00
2022-12-08T02:31:09.790Z,411.00
2022-12-08T02:32:09.750Z,449.00
2022-12-08T02:33:09.715Z,413.00
2022-12-08T02:34:09.707Z,414.00
2022-12-08T02:35:09.672Z,432.00
2022-12-08T02:36:09.646Z,421.00
2022-12-08T02:37:09.691Z,436.00
2022-12-08T02:38:09.631Z,439.00
2022-12-08T02:39:09.614Z,440.00
2022-12-08T02:40:09.601Z,430.00
2022-12-08T02:41:09.591Z,434.00
2022-12-08T02:42:09.605Z,453.00
2022-12-08T02:43:09.563Z,462.00
2022-12-08T02:44:09.547Z,436.00
2022-12-08T02:45:09.552Z,430.00
2022-12-08T02:46:09.602Z,419.00
2022-12-08T02:47:09.521Z,432.00
2022-12-08T02:48:09.508Z,427.00
2022-12-08T02:49:09.491Z,450.00
2022-12-08T02:50:09.469Z,447.00
2022-12-08T02:51:09.499Z,438.00
2022-12-08T02:52:09.434Z,435.00
2022-12-08T02:53:40.899Z,340.00
2022-12-08T02:54:41.973Z,404.00
2022-12-08T02:55:41.890Z,418.00
2022-12-08T02:56:41.860Z,408.00
2022-12-08T02:57:41.876Z,408.00
2022-12-08T02:58:41.857Z,417.00
2022-12-08T02:59:41.883Z,418.00
2022-12-08T03:00:41.798Z,411.00
2022-12-08T03:01:41.877Z,407.00
2022-12-08T03:02:41.851Z,403.00
2022-12-08T03:03:41.797Z,412.00
2022-12-08T03:04:41.774Z,405.00
2022-12-08T03:05:41.775Z,391.00
2022-12-08T03:06:41.733Z,387.00
2022-12-08T03:07:41.782Z,385.00
2022-12-08T03:08:41.708Z,390.00
2022-12-08T03:09:41.720Z,397.00
2022-12-08T03:10:41.704Z,407.00
2022-12-08T03:11:41.688Z,409.00
2022-12-08T03:12:41.687Z,413.00
2022-12-08T03:13:41.666Z,416.00
2022-12-08T03:14:41.620Z,382.00
2022-12-08T03:15:41.689Z,398.00
2022-12-08T03:16:41.639Z,405.00
2022-12-08T03:17:41.617Z,407.00
2022-12-08T03:18:43.924Z,403.00
2022-12-08T03:19:41.641Z,412.00
2022-12-08T03:20:41.545Z,420.00
2022-12-08T03:21:41.566Z,415.00
2022-12-08T03:22:41.526Z,406.00
2022-12-08T03:23:41.541Z,417.00
2022-12-08T03:24:41.524Z,432.00
2022-12-08T03:25:41.508Z,425.00
2022-12-08T03:26:41.514Z,410.00
2022-12-08T03:27:41.470Z,418.00
2022-12-08T03:28:41.603Z,425.00
2022-12-08T03:29:41.495Z,404.00
2022-12-08T03:30:41.481Z,406.00
2022-12-08T03:31:41.478Z,420.00
2022-12-08T03:32:41.460Z,420.00
2022-12-08T03:33:41.401Z,432.00
2022-12-08T03:34:41.438Z,423.00
2022-12-08T03:35:41.420Z,416.00
2022-12-08T03:36:41.378Z,425.00
2022-12-08T03:37:41.380Z,420.00
2022-12-08T03:38:41.362Z,432.00
2022-12-08T03:39:41.344Z,428.00
2022-12-08T03:40:41.341Z,423.00
2022-12-08T03:41:41.288Z,403.00
2022-12-08T03:42:41.308Z,384.00
2022-12-08T03:43:41.257Z,389.00
2022-12-08T03:44:41.282Z,401.00
2022-12-08T03:45:41.239Z,401.00
2022-12-08T03:46:41.227Z,396.00
2022-12-08T03:47:41.226Z,392.00
2022-12-08T03:48:41.216Z,386.00
2022-12-08T03:49:41.232Z,378.00
2022-12-08T03:50:41.239Z,387.00
2022-12-08T03:51:41.201Z,379.00
2022-12-08T03:52:41.186Z,366.00
2022-12-08T03:53:41.207Z,370.00
2022-12-08T03:54:41.177Z,366.00
2022-12-08T03:55:41.159Z,365.00
2022-12-08T03:56:41.121Z,378.00
2022-12-08T03:57:41.154Z,375.00
2022-12-08T03:58:41.118Z,385.00
2022-12-08T03:59:41.113Z,389.00
2022-12-08T04:00:41.065Z,381.00
2022-12-08T04:01:41.114Z,375.00
2022-12-08T04:02:41.060Z,361.00
2022-12-08T04:03:41.007Z,370.00
2022-12-08T04:04:40.993Z,346.00
2022-12-08T04:05:40.987Z,351.00
2022-12-08T04:06:40.971Z,356.00
2022-12-08T04:07:41.017Z,363.00
2022-12-08T04:08:40.963Z,387.00
2022-12-08T04:09:40.936Z,364.00
2022-12-08T04:10:40.917Z,356.00
2022-12-08T04:11:40.926Z,350.00
2022-12-08T04:12:40.929Z,350.00
2022-12-08T04:13:40.948Z,337.00
2022-12-08T04:14:40.862Z,356.00
2022-12-08T04:15:40.884Z,353.00
2022-12-08T04:16:40.860Z,353.00
2022-12-08T04:17:40.828Z,350.00
2022-12-08T04:18:40.822Z,361.00
2022-12-08T04:19:40.850Z,359.00
2022-12-08T04:20:40.794Z,367.00
2022-12-08T04:21:40.839Z,380.00
2022-12-08T04:22:40.757Z,398.00
2022-12-08T04:23:40.751Z,395.00
2022-12-08T04:24:40.745Z,406.00
2022-12-08T04:25:40.764Z,411.00
2022-12-08T04:26:40.719Z,442.00
2022-12-08T04:27:40.731Z,412.00
2022-12-08T04:28:40.738Z,453.00
2022-12-08T04:29:40.676Z,447.00
2022-12-08T04:30:40.672Z,442.00
2022-12-08T04:31:40.729Z,413.00
2022-12-08T04:32:47.075Z,417.00
2022-12-08T04:33:40.643Z,412.00
2022-12-08T04:34:40.599Z,393.00
2022-12-08T04:35:40.613Z,391.00
2022-12-08T04:36:40.603Z,378.00
2022-12-08T04:37:40.607Z,365.00
2022-12-08T04:38:40.589Z,358.00
2022-12-08T04:39:40.569Z,356.00
2022-12-08T04:40:40.548Z,350.00
2022-12-08T04:41:40.553Z,335.00
2022-12-08T04:42:40.524Z,349.00
2022-12-08T04:43:40.534Z,359.00
2022-12-08T04:44:40.505Z,360.00
2022-12-08T04:45:40.501Z,370.00
2022-12-08T04:46:43.593Z,380.00
2022-12-08T04:47:40.477Z,380.00
2022-12-08T04:48:40.487Z,386.00
2022-12-08T04:49:40.455Z,387.00
2022-12-08T04:50:40.397Z,388.00
2022-12-08T04:51:40.410Z,377.00
2022-12-08T04:52:40.385Z,368.00
2022-12-08T04:53:46.111Z,377.00
2022-12-08T04:54:40.655Z,380.00
2022-12-08T04:55:40.402Z,387.00
2022-12-08T04:56:40.341Z,405.00
2022-12-08T04:57:40.328Z,402.00
2022-12-08T04:58:40.366Z,415.00
2022-12-08T04:59:40.339Z,431.00
2022-12-08T05:00:40.332Z,420.00
2022-12-08T05:01:40.478Z,417.00
2022-12-08T05:02:40.340Z,421.00
2022-12-08T05:03:40.298Z,431.00
2022-12-08T05:04:40.286Z,437.00
2022-12-08T05:05:40.274Z,437.00
2022-12-08T05:06:40.228Z,439.00
2022-12-08T05:07:40.252Z,448.00
2022-12-08T05:08:40.229Z,448.00
2022-12-08T05:09:40.216Z,450.00
2022-12-08T05:10:40.186Z,445.00
2022-12-08T05:11:45.248Z,443.00
2022-12-08T05:12:40.133Z,439.00
2022-12-08T05:13:40.102Z,440.00
2022-12-08T05:14:40.087Z,445.00
2022-12-08T05:15:40.107Z,438.00
2022-12-08T05:16:40.130Z,439.00
2022-12-08T05:17:40.083Z,418.00
2022-12-08T05:18:40.046Z,401.00
2022-12-08T05:19:40.021Z,389.00
2022-12-08T05:20:40.038Z,367.00
2022-12-08T05:21:40.002Z,377.00
2022-12-08T05:22:40.008Z,372.00
2022-12-08T05:23:39.991Z,389.00
2022-12-08T05:24:45.622Z,386.00
2022-12-08T05:25:39.978Z,381.00
2022-12-08T05:26:39.960Z,377.00
2022-12-08T05:27:39.952Z,413.00
2022-12-08T05:28:41.982Z,413.00
2022-12-08T05:29:39.892Z,413.00
2022-12-08T05:30:39.906Z,416.00
2022-12-08T05:31:39.922Z,422.00
2022-12-08T05:32:39.877Z,393.00
2022-12-08T05:33:39.863Z,352.00
2022-12-08T05:34:39.889Z,365.00
2022-12-08T05:35:39.848Z,376.00
2022-12-08T05:36:39.810Z,401.00
2022-12-08T05:37:39.795Z,409.00
2022-12-08T05:38:39.811Z,394.00
2022-12-08T05:39:39.776Z,412.00
2022-12-08T05:40:39.787Z,407.00
2022-12-08T05:41:39.770Z,404.00
2022-12-08T05:42:39.760Z,407.00
2022-12-08T05:43:39.727Z,407.00
2022-12-08T05:44:39.730Z,394.00
2022-12-08T05:45:39.770Z,419.00
2022-12-08T05:46:39.712Z,427.00
2022-12-08T05:47:39.664Z,412.00
2022-12-08T05:48:39.685Z,430.00
2022-12-08T05:49:39.657Z,408.00
2022-12-08T05:50:39.632Z,420.00
2022-12-08T05:51:39.608Z,399.00
2022-12-08T05:52:39.615Z,400.00
2022-12-08T05:53:39.590Z,394.00
2022-12-08T05:54:39.593Z,379.00
2022-12-08T05:55:39.599Z,378.00
2022-12-08T05:56:39.557Z,415.00
2022-12-08T05:57:39.568Z,414.00
2022-12-08T05:58:39.555Z,408.00
2022-12-08T05:59:39.533Z,398.00
2022-12-08T06:00:39.543Z,404.00
2022-12-08T06:01:39.552Z,393.00
2022-12-08T06:02:39.639Z,385.00
2022-12-08T06:03:39.463Z,372.00
2022-12-08T06:04:39.473Z,372.00
2022-12-08T06:05:39.451Z,352.00
2022-12-08T06:06:39.425Z,361.00
2022-12-08T06:07:39.467Z,350.00
2022-12-08T06:08:39.420Z,351.00
2022-12-08T06:09:39.400Z,357.00
2022-12-08T06:10:39.407Z,347.00
2022-12-08T06:11:39.374Z,352.00
2022-12-08T06:12:39.363Z,350.00
2022-12-08T06:13:39.351Z,338.00
2022-12-08T06:14:39.337Z,355.00
2022-12-08T06:15:39.323Z,364.00
2022-12-08T06:16:39.351Z,372.00
2022-12-08T06:17:39.286Z,367.00
2022-12-08T06:18:39.269Z,371.00
2022-12-08T06:19:39.318Z,382.00
2022-12-08T06:20:39.280Z,388.00
2022-12-08T06:21:39.243Z,404.00
2022-12-08T06:22:39.243Z,415.00
2022-12-08T06:23:39.192Z,430.00
2022-12-08T06:24:39.208Z,446.00
2022-12-08T06:25:39.170Z,439.00
2022-12-08T06:26:39.168Z,432.00
2022-12-08T06:27:39.185Z,447.00
2022-12-08T06:28:39.147Z,434.00
2022-12-08T06:29:39.137Z,441.00
2022-12-08T06:30:39.117Z,436.00
2022-12-08T06:31:39.276Z,427.00
2022-12-08T06:32:39.080Z,434.00
2022-12-08T06:33:39.084Z,446.00
2022-12-08T06:34:39.092Z,446.00
2022-12-08T06:35:39.063Z,445.00
2022-12-08T06:36:39.050Z,461.00
2022-12-08T06:37:39.030Z,460.00
2022-12-08T06:38:43.091Z,461.00
2022-12-08T06:39:39.057Z,437.00
2022-12-08T06:40:39.008Z,435.00
2022-12-08T06:41:38.999Z,433.00
2022-12-08T06:42:38.973Z,445.00
2022-12-08T06:43:38.998Z,424.00
2022-12-08T06:44:38.966Z,433.00
2022-12-08T06:45:38.954Z,444.00
2022-12-08T06:46:38.936Z,453.00
2022-12-08T06:47:38.901Z,442.00
2022-12-08T06:48:38.905Z,429.00
2022-12-08T06:49:38.869Z,429.00
2022-12-08T06:50:38.857Z,452.00
2022-12-08T06:51:38.837Z,445.00
2022-12-08T06:52:47.316Z,453.00
2022-12-08T06:53:38.832Z,452.00
2022-12-08T06:54:38.799Z,462.00
2022-12-08T06:56:38.806Z,452.00
2022-12-08T06:57:38.773Z,452.00
2022-12-08T06:58:38.764Z,444.00
2022-12-08T06:59:38.732Z,466.00
2022-12-08T07:00:39.043Z,450.00
2022-12-08T07:01:38.782Z,442.00
2022-12-08T07:02:38.786Z,431.00
2022-12-08T07:03:38.693Z,425.00
2022-12-08T07:04:38.659Z,424.00
2022-12-08T07:05:38.667Z,426.00
2022-12-08T07:06:38.675Z,463.00
2022-12-08T07:07:38.666Z,448.00
2022-12-08T07:08:38.641Z,363.00
2022-12-08T07:09:38.601Z,337.00
2022-12-08T07:10:38.607Z,324.00
2022-12-08T07:11:38.574Z,327.00
2022-12-08T07:12:38.555Z,331.00
2022-12-08T07:13:38.561Z,339.00
2022-12-08T07:14:38.561Z,337.00
2022-12-08T07:15:38.515Z,342.00
2022-12-08T07:16:38.607Z,347.00
2022-12-08T07:17:38.508Z,351.00
2022-12-08T07:18:38.510Z,361.00
2022-12-08T07:19:38.468Z,354.00
2022-12-08T07:20:38.492Z,339.00
2022-12-08T07:21:38.457Z,338.00
2022-12-08T07:22:38.438Z,345.00
2022-12-08T07:23:38.456Z,342.00
2022-12-08T07:24:38.431Z,347.00
2022-12-08T07:25:38.402Z,348.00
2022-12-08T07:26:38.394Z,349.00
2022-12-08T07:27:38.411Z,354.00
2022-12-08T07:28:38.384Z,336.00
2022-12-08T07:29:38.334Z,331.00
2022-12-08T07:30:38.451Z,324.00
2022-12-08T07:31:38.322Z,334.00
2022-12-08T07:32:38.319Z,326.00
2022-12-08T07:33:38.319Z,327.00
2022-12-08T07:34:38.273Z,344.00
2022-12-08T07:35:38.262Z,341.00
2022-12-08T07:36:38.408Z,347.00
2022-12-08T07:37:38.252Z,332.00
2022-12-08T07:38:38.230Z,342.00
2022-12-08T07:39:38.223Z,348.00
2022-12-08T07:40:38.496Z,339.00
2022-12-08T07:41:38.232Z,328.00
2022-12-08T07:42:38.231Z,308.00
2022-12-08T07:43:38.201Z,325.00
2022-12-08T07:44:38.178Z,326.00
2022-12-08T07:45:38.148Z,323.00
2022-12-08T07:46:38.180Z,327.00
2022-12-08T07:47:38.147Z,330.00
2022-12-08T07:48:38.128Z,327.00
2022-12-08T07:49:38.108Z,328.00
2022-12-08T07:50:38.146Z,329.00
2022-12-08T07:51:38.054Z,341.00
2022-12-08T07:52:38.165Z,340.00
2022-12-08T07:53:38.114Z,340.00
2022-12-08T07:54:38.038Z,340.00
2022-12-08T07:55:38.011Z,324.00
2022-12-08T07:56:37.972Z,318.00
2022-12-08T07:57:38.000Z,315.00
2022-12-08T07:58:37.972Z,315.00
2022-12-08T07:59:37.942Z,309.00
2022-12-08T08:00:37.993Z,309.00
2022-12-08T08:01:37.987Z,285.00
2022-12-08T08:02:38.121Z,292.00
2022-12-08T08:03:37.896Z,297.00
2022-12-08T08:04:37.943Z,299.00
2022-12-08T08:05:37.882Z,303.00
2022-12-08T08:06:38.302Z,313.00
2022-12-08T08:07:37.879Z,324.00
2022-12-08T08:08:37.862Z,336.00
2022-12-08T08:09:37.812Z,328.00
2022-12-08T08:10:37.797Z,322.00
2022-12-08T08:11:37.785Z,351.00
2022-12-08T08:12:37.793Z,345.00
2022-12-08T08:13:37.766Z,358.00
2022-12-08T08:14:37.756Z,406.00
2022-12-08T08:15:37.815Z,452.00
2022-12-08T08:16:38.709Z,462.00
2022-12-08T08:17:37.868Z,441.00
2022-12-08T08:18:37.728Z,442.00
2022-12-08T08:19:37.687Z,440.00
2022-12-08T08:20:37.687Z,446.00
2022-12-08T08:21:45.653Z,466.00
2022-12-08T08:22:37.668Z,423.00
2022-12-08T08:23:37.630Z,374.00
2022-12-08T08:24:43.119Z,352.00
2022-12-08T08:25:37.602Z,351.00
2022-12-08T08:26:37.642Z,345.00
2022-12-08T08:27:37.572Z,355.00
2022-12-08T08:28:37.591Z,347.00
2022-12-08T08:29:37.584Z,346.00
2022-12-08T08:30:37.568Z,342.00
2022-12-08T08:31:37.600Z,394.00
2022-12-08T08:32:37.518Z,383.00
2022-12-08T08:33:37.516Z,397.00
2022-12-08T08:34:37.518Z,416.00
2022-12-08T08:35:37.514Z,423.00
2022-12-08T08:36:37.492Z,393.00
2022-12-08T08:37:37.457Z,349.00
2022-12-08T08:38:37.443Z,344.00
2022-12-08T08:39:37.459Z,341.00
2022-12-08T08:40:37.422Z,326.00
2022-12-08T08:41:37.418Z,327.00
2022-12-08T08:42:37.429Z,329.00
2022-12-08T08:43:38.514Z,340.00
2022-12-08T08:44:37.358Z,341.00
2022-12-08T08:45:37.394Z,320.00
2022-12-08T08:46:37.444Z,320.00
2022-12-08T08:47:37.330Z,317.00
2022-12-08T08:48:37.319Z,337.00
2022-12-08T08:49:37.320Z,331.00
2022-12-08T08:50:37.818Z,315.00
2022-12-08T08:51:37.280Z,317.00
2022-12-08T08:52:37.250Z,345.00
2022-12-08T08:53:37.233Z,347.00
2022-12-08T08:54:37.242Z,333.00
2022-12-08T08:55:37.219Z,331.00
2022-12-08T08:56:37.218Z,337.00
2022-12-08T08:57:37.179Z,343.00
2022-12-08T08:58:37.190Z,343.00
2022-12-08T08:59:37.165Z,375.00
2022-12-08T09:00:37.148Z,427.00
2022-12-08T09:01:37.192Z,408.00
2022-12-08T09:02:37.139Z,342.00
2022-12-08T09:03:37.115Z,327.00
2022-12-08T09:04:37.161Z,321.00
2022-12-08T09:05:37.107Z,312.00
2022-12-08T09:06:37.144Z,349.00
2022-12-08T09:07:37.210Z,342.00
2022-12-08T09:08:37.064Z,294.00
2022-12-08T09:09:37.043Z,292.00
2022-12-08T09:10:37.019Z,292.00
2022-12-08T09:11:37.041Z,291.00
2022-12-08T09:12:37.045Z,291.00
2022-12-08T09:13:37.005Z,293.00
2022-12-08T09:14:37.008Z,289.00
2022-12-08T09:15:37.063Z,292.00
2022-12-08T09:16:57.933Z,290.00
2022-12-08T09:18:48.104Z,309.00
2022-12-08T09:19:49.083Z,323.00
2022-12-08T09:20:49.077Z,340.00
2022-12-08T09:21:49.083Z,323.00
2022-12-08T09:22:49.067Z,298.00
2022-12-08T09:23:49.043Z,313.00
2022-12-08T09:24:49.006Z,325.00
2022-12-08T09:25:49.019Z,344.00
2022-12-08T09:26:49.011Z,322.00
2022-12-08T09:27:48.962Z,315.00
2022-12-08T09:28:48.976Z,321.00
2022-12-08T09:29:48.985Z,319.00
2022-12-08T09:30:49.024Z,306.00
2022-12-08T09:31:49.034Z,301.00
2022-12-08T09:32:48.983Z,297.00
2022-12-08T09:33:48.910Z,296.00
2022-12-08T09:34:52.043Z,343.00
2022-12-08T09:35:48.873Z,333.00
2022-12-08T09:36:48.856Z,344.00
2022-12-08T09:37:48.856Z,342.00
2022-12-08T09:38:48.854Z,340.00
2022-12-08T09:39:48.822Z,338.00
2022-12-08T09:40:48.812Z,343.00
2022-12-08T09:41:48.817Z,355.00
2022-12-08T09:42:48.810Z,358.00
2022-12-08T09:43:48.777Z,357.00
2022-12-08T09:44:48.804Z,358.00
2022-12-08T09:45:48.775Z,384.00
2022-12-08T09:46:48.828Z,371.00
2022-12-08T09:47:48.713Z,393.00
2022-12-08T09:48:48.722Z,485.00
2022-12-08T09:49:48.702Z,461.00
2022-12-08T09:50:48.696Z,457.00
2022-12-08T09:51:48.695Z,456.00
2022-12-08T09:52:48.648Z,456.00
2022-12-08T09:53:48.622Z,409.00
2022-12-08T09:54:48.668Z,361.00
2022-12-08T09:55:48.631Z,357.00
2022-12-08T09:56:48.600Z,351.00
2022-12-08T09:57:53.054Z,340.00
2022-12-08T09:58:48.588Z,341.00
2022-12-08T09:59:48.573Z,343.00
2022-12-08T10:00:48.587Z,350.00
2022-12-08T10:01:48.614Z,347.00
2022-12-08T10:02:48.531Z,358.00
2022-12-08T10:03:48.530Z,357.00
2022-12-08T10:04:48.540Z,298.00
2022-12-08T10:05:48.517Z,326.00
2022-12-08T10:06:48.476Z,379.00
2022-12-08T10:07:48.508Z,335.00
2022-12-08T10:08:48.474Z,345.00
2022-12-08T10:09:48.451Z,334.00
2022-12-08T10:10:48.417Z,326.00
2022-12-08T10:11:48.408Z,345.00
2022-12-08T10:12:48.495Z,353.00
2022-12-08T10:13:48.380Z,355.00
2022-12-08T10:14:48.377Z,314.00
2022-12-08T10:15:48.377Z,298.00
2022-12-08T10:16:48.524Z,302.00
2022-12-08T10:17:48.318Z,316.00
2022-12-08T10:18:48.317Z,336.00
2022-12-08T10:19:48.276Z,326.00
2022-12-08T10:20:48.323Z,306.00
2022-12-08T10:21:48.267Z,327.00
2022-12-08T10:22:48.253Z,350.00
2022-12-08T10:23:48.246Z,347.00
2022-12-08T10:24:48.218Z,373.00
2022-12-08T10:25:48.228Z,375.00
2022-12-08T10:26:48.198Z,358.00
2022-12-08T10:27:48.175Z,355.00
2022-12-08T10:28:48.166Z,415.00
2022-12-08T10:29:48.187Z,436.00
2022-12-08T10:30:48.195Z,368.00
2022-12-08T10:31:48.229Z,273.00
2022-12-08T10:32:48.142Z,327.00
2022-12-08T10:33:48.093Z,352.00
2022-12-08T10:34:52.162Z,305.00
2022-12-08T10:35:48.125Z,374.00
2022-12-08T10:36:48.079Z,466.00
2022-12-08T10:37:48.098Z,436.00
2022-12-08T10:38:48.060Z,416.00
2022-12-08T10:39:48.019Z,296.00
2022-12-08T10:40:48.042Z,264.00
2022-12-08T10:41:48.006Z,314.00
2022-12-08T10:42:48.015Z,331.00
2022-12-08T10:43:47.987Z,303.00
2022-12-08T10:44:47.979Z,264.00
2022-12-08T10:45:47.989Z,388.00
2022-12-08T10:46:48.068Z,430.00
2022-12-08T10:47:52.367Z,445.00
2022-12-08T10:48:47.926Z,462.00
2022-12-08T10:49:47.910Z,483.00
2022-12-08T10:50:47.918Z,442.00
2022-12-08T10:51:47.863Z,464.00
2022-12-08T10:52:47.880Z,459.00
2022-12-08T10:53:47.880Z,280.00
2022-12-08T10:54:47.880Z,358.00
2022-12-08T10:55:47.967Z,373.00
2022-12-08T10:56:47.825Z,375.00
2022-12-08T10:57:47.786Z,380.00
2022-12-08T10:58:47.793Z,330.00
2022-12-08T10:59:47.789Z,261.00
2022-12-08T11:00:47.966Z,287.00
2022-12-08T11:01:47.949Z,354.00
2022-12-08T11:02:47.772Z,373.00
2022-12-08T11:03:47.721Z,291.00
2022-12-08T11:04:47.712Z,254.00
2022-12-08T11:05:47.698Z,376.00
2022-12-08T11:06:47.703Z,433.00
2022-12-08T11:07:47.726Z,452.00
2022-12-08T11:08:47.682Z,441.00
2022-12-08T11:09:47.639Z,380.00
2022-12-08T11:10:47.634Z,355.00
2022-12-08T11:11:47.611Z,335.00
2022-12-08T11:12:47.612Z,349.00
2022-12-08T11:13:47.588Z,345.00
2022-12-08T11:14:47.568Z,341.00
2022-12-08T11:15:47.635Z,348.00
2022-12-08T11:16:47.598Z,358.00
2022-12-08T11:17:47.553Z,363.00
2022-12-08T11:18:47.546Z,357.00
2022-12-08T11:19:47.510Z,350.00
2022-12-08T11:20:47.511Z,309.00
2022-12-08T11:21:47.468Z,298.00
2022-12-08T11:22:47.473Z,308.00
2022-12-08T11:23:47.472Z,335.00
2022-12-08T11:24:47.486Z,345.00
2022-12-08T11:25:47.433Z,407.00
2022-12-08T11:26:47.485Z,455.00
2022-12-08T11:27:47.381Z,463.00
2022-12-08T11:28:47.425Z,461.00
2022-12-08T11:29:47.362Z,456.00
2022-12-08T11:30:47.380Z,467.00
2022-12-08T11:31:47.380Z,453.00
2022-12-08T11:32:47.334Z,457.00
2022-12-08T11:33:47.305Z,457.00
2022-12-08T11:34:47.307Z,454.00
2022-12-08T11:35:47.298Z,436.00
2022-12-08T11:36:47.313Z,444.00
2022-12-08T11:37:47.270Z,432.00
2022-12-08T11:38:47.282Z,430.00
2022-12-08T11:39:47.243Z,437.00
2022-12-08T11:40:47.229Z,456.00
2022-12-08T11:41:47.204Z,460.00
2022-12-08T11:42:47.195Z,451.00
2022-12-08T11:43:47.195Z,460.00
2022-12-08T11:44:47.242Z,450.00
2022-12-08T11:45:47.203Z,464.00
2022-12-08T11:46:47.157Z,437.00
2022-12-08T11:47:52.617Z,449.00
2022-12-08T11:48:47.144Z,383.00
2022-12-08T11:50:47.130Z,377.00
2022-12-08T11:51:47.079Z,392.00
2022-12-08T11:52:47.100Z,388.00
2022-12-08T11:53:47.080Z,336.00
2022-12-08T11:54:47.040Z,348.00
2022-12-08T11:55:49.879Z,352.00
2022-12-08T11:56:47.040Z,357.00
2022-12-08T11:57:47.095Z,358.00
2022-12-08T11:58:46.982Z,438.00
2022-12-08T11:59:46.982Z,480.00
2022-12-08T12:00:47.018Z,460.00
2022-12-08T12:01:47.015Z,448.00
2022-12-08T12:02:47.015Z,438.00
2022-12-08T12:03:47.084Z,375.00
2022-12-08T12:04:46.946Z,383.00
2022-12-08T12:06:09.241Z,353.00
2022-12-08T12:06:54.590Z,381.00
2022-12-08T12:07:46.904Z,448.00
2022-12-08T12:08:46.873Z,464.00
2022-12-08T12:09:46.836Z,463.00
2022-12-08T12:10:46.908Z,431.00
2022-12-08T12:11:46.806Z,447.00
2022-12-08T12:12:46.824Z,443.00
2022-12-08T12:13:46.832Z,439.00
2022-12-08T12:14:46.782Z,430.00
2022-12-08T12:15:46.795Z,368.00
2022-12-08T12:16:46.765Z,344.00
2022-12-08T12:17:46.779Z,347.00
2022-12-08T12:18:46.781Z,339.00
2022-12-08T12:19:46.729Z,343.00
2022-12-08T12:20:46.755Z,382.00
2022-12-08T12:21:46.670Z,397.00
2022-12-08T12:22:46.677Z,342.00
2022-12-08T12:23:46.683Z,349.00
2022-12-08T12:24:46.652Z,357.00
2022-12-08T12:25:46.627Z,349.00
2022-12-08T12:26:46.647Z,337.00
2022-12-08T12:27:46.632Z,332.00
2022-12-08T12:28:46.580Z,376.00
2022-12-08T12:29:49.814Z,367.00
2022-12-08T12:30:46.628Z,386.00
2022-12-08T12:31:46.577Z,383.00